Time;durP1;ratioP1;P1;durP2;ratioP2;P2;SDS_P1;SDS_P2;PMS_P1;PMS_P2;Temp;Humidity;BMP_temperature;BMP_pressure;BME280_temperature;BME280_humidity;BME280_pressure;Samples;Min_cycle;Max_cycle;Signal;HPM_P1;HPM_P2
2023/12/06 00:01:10;;;;;;;70.50;44.60;;;-0.30;99.90;;;;;;5051791;28;20474;-55
2023/12/06 00:03:37;;;;;;;63.00;42.10;;;-0.40;99.90;;;;;;5057005;28;20504;-57
2023/12/06 00:06:03;;;;;;;65.97;43.13;;;-0.30;99.90;;;;;;5059262;28;20446;-55
2023/12/06 00:08:31;;;;;;;71.73;45.20;;;-0.30;99.90;;;;;;5056078;28;20461;-55
2023/12/06 00:10:59;;;;;;;68.67;43.90;;;-0.30;99.90;;;;;;5059000;28;20520;-55
2023/12/06 00:13:26;;;;;;;64.80;43.73;;;-0.30;99.90;;;;;;5061024;28;20465;-56
2023/12/06 00:15:52;;;;;;;57.87;40.67;;;-0.30;99.90;;;;;;5057016;28;21239;-56
2023/12/06 00:18:20;;;;;;;67.33;43.33;;;-0.30;99.90;;;;;;5056218;28;20437;-57
2023/12/06 00:20:46;;;;;;;65.50;44.30;;;-0.30;99.90;;;;;;5059161;28;20818;-56
2023/12/06 00:23:13;;;;;;;71.17;43.40;;;-0.30;99.90;;;;;;5057148;28;20897;-58
2023/12/06 00:25:41;;;;;;;66.70;44.50;;;-0.20;99.90;;;;;;5061845;28;20499;-55
2023/12/06 00:28:08;;;;;;;62.80;41.93;;;-0.20;99.90;;;;;;5057283;28;20466;-55
2023/12/06 00:30:36;;;;;;;64.00;42.37;;;-0.20;99.90;;;;;;5053906;28;20562;-57
2023/12/06 00:33:03;;;;;;;61.77;42.30;;;-0.20;99.90;;;;;;5058895;28;20472;-56
2023/12/06 00:35:29;;;;;;;56.97;38.47;;;-0.20;99.90;;;;;;5053870;28;20502;-55
2023/12/06 00:37:56;;;;;;;61.47;40.07;;;-0.20;99.90;;;;;;5065508;28;20444;-56
2023/12/06 00:40:22;;;;;;;61.33;40.10;;;-0.20;99.90;;;;;;5054235;28;20862;-56
2023/12/06 00:42:50;;;;;;;56.97;39.63;;;-0.10;99.90;;;;;;5060119;28;20497;-56
2023/12/06 00:45:17;;;;;;;68.43;42.13;;;-0.10;99.90;;;;;;5060969;28;20495;-56
2023/12/06 00:47:43;;;;;;;61.80;41.37;;;-0.10;99.90;;;;;;5063257;28;20456;-57
2023/12/06 00:50:10;;;;;;;61.43;42.37;;;-0.10;99.90;;;;;;5058141;28;20561;-55
2023/12/06 00:52:37;;;;;;;61.47;40.80;;;-0.10;99.90;;;;;;5065659;28;20442;-57
2023/12/06 00:55:05;;;;;;;58.43;40.30;;;-0.10;99.90;;;;;;5059689;28;20493;-56
2023/12/06 00:57:30;;;;;;;58.67;41.50;;;0.00;99.30;;;;;;5053598;28;20465;-56
2023/12/06 00:59:58;;;;;;;62.93;42.40;;;-0.10;96.50;;;;;;5057034;28;20939;-55
2023/12/06 01:02:26;;;;;;;56.37;38.93;;;0.00;95.60;;;;;;5060125;28;20230;-56
2023/12/06 01:04:52;;;;;;;63.47;41.43;;;0.00;95.20;;;;;;5070225;22;21688;-55
2023/12/06 01:07:19;;;;;;;57.27;40.00;;;0.00;94.80;;;;;;5040392;28;21056;-55
2023/12/06 01:09:46;;;;;;;63.20;41.33;;;0.00;92.90;;;;;;5055751;28;20443;-55
2023/12/06 01:12:12;;;;;;;61.07;40.50;;;0.00;91.90;;;;;;5047133;28;20441;-55
2023/12/06 01:14:39;;;;;;;61.53;40.50;;;0.00;90.60;;;;;;5047763;28;20839;-56
2023/12/06 01:17:07;;;;;;;59.07;40.10;;;0.00;90.40;;;;;;5033017;28;20447;-55
2023/12/06 01:19:33;;;;;;;60.60;40.37;;;0.00;88.40;;;;;;5036287;28;20447;-61
2023/12/06 01:22:00;;;;;;;57.83;39.37;;;0.00;88.30;;;;;;5034333;28;20439;-61
2023/12/06 01:24:27;;;;;;;60.27;39.57;;;0.00;86.30;;;;;;5021556;28;20528;-60
2023/12/06 01:26:53;;;;;;;62.33;39.13;;;0.10;84.90;;;;;;5041115;28;20446;-61
2023/12/06 01:29:20;;;;;;;62.70;41.00;;;0.10;85.30;;;;;;5038676;28;21132;-61
2023/12/06 01:31:46;;;;;;;56.47;38.80;;;0.10;87.20;;;;;;5027874;28;20622;-60
2023/12/06 01:34:14;;;;;;;55.80;38.43;;;0.10;85.20;;;;;;5033360;28;21018;-60
2023/12/06 01:36:41;;;;;;;59.83;38.73;;;0.10;85.50;;;;;;5032156;28;20491;-61
2023/12/06 01:39:07;;;;;;;59.93;40.30;;;0.10;85.00;;;;;;5040485;28;20450;-61
2023/12/06 01:41:34;;;;;;;58.77;39.80;;;0.10;83.80;;;;;;5027057;28;20517;-61
2023/12/06 01:44:01;;;;;;;52.60;37.90;;;0.10;83.00;;;;;;5037608;28;20446;-60
2023/12/06 01:46:27;;;;;;;61.93;39.53;;;0.10;82.80;;;;;;5033025;28;20467;-60
2023/12/06 01:48:56;;;;;;;62.30;40.87;;;0.10;83.20;;;;;;5028338;28;20937;-55
2023/12/06 01:51:25;;;;;;;54.73;37.93;;;0.10;82.10;;;;;;5035498;28;20548;-54
2023/12/06 01:53:51;;;;;;;59.40;40.30;;;0.10;78.70;;;;;;5035715;28;20500;-53
2023/12/06 01:56:20;;;;;;;58.03;38.60;;;0.10;77.70;;;;;;5037834;28;20543;-55
2023/12/06 01:58:47;;;;;;;60.70;38.80;;;0.10;76.70;;;;;;5028477;28;20828;-55
2023/12/06 02:01:15;;;;;;;62.03;42.30;;;0.10;74.60;;;;;;5028401;28;20470;-55
2023/12/06 02:03:41;;;;;;;60.87;40.53;;;0.20;75.50;;;;;;5037739;28;20451;-56
2023/12/06 02:06:09;;;;;;;56.30;38.97;;;0.10;74.20;;;;;;5031897;28;20520;-56
2023/12/06 02:08:40;;;;;;;61.20;38.60;;;0.10;72.50;;;;;;5033150;28;20968;-56
2023/12/06 02:11:07;;;;;;;60.57;40.90;;;0.10;71.70;;;;;;5041630;28;20479;-55
2023/12/06 02:13:34;;;;;;;54.80;39.43;;;0.20;70.30;;;;;;5035304;28;20957;-55
2023/12/06 02:16:01;;;;;;;59.93;39.47;;;0.10;70.00;;;;;;5027133;28;21007;-55
2023/12/06 02:18:29;;;;;;;60.90;41.77;;;0.10;69.90;;;;;;5025674;28;20488;-56
2023/12/06 02:20:56;;;;;;;60.50;42.07;;;0.10;69.40;;;;;;5036880;28;20458;-55
2023/12/06 02:23:30;;;;;;;62.37;40.80;;;0.00;68.90;;;;;;5029401;28;20483;-54
2023/12/06 02:25:58;;;;;;;57.20;39.90;;;0.00;64.60;;;;;;5042059;28;20463;-55
2023/12/06 02:28:25;;;;;;;56.53;40.63;;;0.10;63.70;;;;;;5034001;28;20447;-55
2023/12/06 02:30:51;;;;;;;60.23;39.33;;;0.10;63.20;;;;;;5026389;28;20988;-55
2023/12/06 02:33:18;;;;;;;57.93;39.63;;;0.00;64.80;;;;;;5034661;28;20515;-56
2023/12/06 02:35:48;;;;;;;58.77;41.37;;;0.00;63.90;;;;;;5028904;28;20494;-56
2023/12/06 02:38:17;;;;;;;58.80;40.40;;;0.10;63.00;;;;;;5033683;28;20538;-54
2023/12/06 02:40:46;;;;;;;62.97;41.90;;;0.10;63.90;;;;;;5035588;28;20477;-55
2023/12/06 02:43:14;;;;;;;57.33;39.90;;;0.00;64.80;;;;;;5033673;28;20447;-55
2023/12/06 02:45:41;;;;;;;63.53;40.97;;;0.00;64.90;;;;;;5026511;28;20592;-55
2023/12/06 02:48:08;;;;;;;60.67;41.50;;;0.10;64.00;;;;;;5028001;28;21033;-55
2023/12/06 02:50:35;;;;;;;60.33;41.63;;;0.00;64.60;;;;;;5028279;28;20884;-55
2023/12/06 02:53:02;;;;;;;65.60;42.30;;;0.10;63.60;;;;;;5030940;28;20505;-55
2023/12/06 02:55:28;;;;;;;59.40;40.17;;;0.10;65.70;;;;;;5027435;28;20552;-54
2023/12/06 02:57:55;;;;;;;55.20;38.87;;;0.10;65.40;;;;;;5031657;28;20450;-55
2023/12/06 03:00:23;;;;;;;63.37;42.87;;;0.10;65.70;;;;;;5029202;28;20443;-54
2023/12/06 03:02:49;;;;;;;64.10;42.17;;;0.10;68.10;;;;;;5032030;28;20442;-55
2023/12/06 03:05:16;;;;;;;59.23;40.13;;;0.10;69.80;;;;;;5032045;28;20499;-55
2023/12/06 03:07:43;;;;;;;64.23;41.13;;;0.10;68.90;;;;;;5024308;28;20812;-55
2023/12/06 03:10:10;;;;;;;62.63;42.33;;;0.10;69.50;;;;;;5028138;28;20447;-54
2023/12/06 03:12:36;;;;;;;60.70;40.07;;;0.00;69.80;;;;;;5025149;28;20486;-55
2023/12/06 03:15:03;;;;;;;59.50;40.43;;;0.00;70.00;;;;;;5035210;28;20475;-56
2023/12/06 03:17:31;;;;;;;62.83;40.50;;;0.00;67.70;;;;;;5032219;28;20446;-55
2023/12/06 03:19:58;;;;;;;56.57;39.73;;;0.00;69.00;;;;;;5031514;28;20466;-57
2023/12/06 03:22:24;;;;;;;63.13;42.37;;;0.00;70.50;;;;;;5041865;28;20438;-55
2023/12/06 03:24:51;;;;;;;62.23;41.90;;;0.00;69.10;;;;;;5028496;28;20515;-55
2023/12/06 03:27:17;;;;;;;61.83;40.13;;;0.00;68.70;;;;;;5036051;28;20466;-55
2023/12/06 03:29:44;;;;;;;59.20;39.67;;;0.00;68.10;;;;;;5023929;28;20498;-55
2023/12/06 03:32:10;;;;;;;60.03;40.20;;;0.00;68.50;;;;;;5030684;28;20514;-57
2023/12/06 03:34:38;;;;;;;58.53;39.43;;;0.00;66.70;;;;;;5037143;28;20463;-57
2023/12/06 03:37:05;;;;;;;61.37;40.60;;;0.00;68.30;;;;;;5030039;28;20471;-58
2023/12/06 03:39:32;;;;;;;63.13;41.57;;;0.00;68.70;;;;;;5031161;28;20475;-57
2023/12/06 03:41:59;;;;;;;55.40;39.00;;;0.00;66.00;;;;;;5028027;28;20566;-57
2023/12/06 03:44:25;;;;;;;65.27;41.27;;;0.00;64.80;;;;;;5035547;28;20916;-56
2023/12/06 03:46:52;;;;;;;73.57;44.67;;;0.00;67.90;;;;;;5029545;28;20470;-56
2023/12/06 03:49:18;;;;;;;61.67;41.20;;;0.00;65.10;;;;;;5033550;28;20450;-58
2023/12/06 03:51:46;;;;;;;65.70;43.67;;;0.00;65.60;;;;;;5036472;28;20513;-57
2023/12/06 03:54:13;;;;;;;60.90;39.80;;;0.00;66.70;;;;;;5029674;28;20482;-57
2023/12/06 03:56:39;;;;;;;64.70;41.20;;;0.00;64.40;;;;;;5030456;28;20517;-56
2023/12/06 03:59:07;;;;;;;62.87;42.80;;;0.00;64.60;;;;;;5031633;28;20455;-56
2023/12/06 04:01:33;;;;;;;63.60;40.53;;;0.00;64.60;;;;;;5035612;28;20439;-56
2023/12/06 04:04:00;;;;;;;63.50;40.00;;;0.00;65.80;;;;;;5029804;28;20527;-58
2023/12/06 04:06:26;;;;;;;65.27;41.33;;;0.00;65.20;;;;;;5027276;28;20518;-57
2023/12/06 04:08:54;;;;;;;66.17;41.40;;;0.00;64.70;;;;;;5031331;28;20482;-57
2023/12/06 04:11:21;;;;;;;79.77;43.63;;;0.00;64.80;;;;;;5036886;28;20556;-57
2023/12/06 04:13:47;;;;;;;60.90;41.67;;;0.00;64.10;;;;;;5038561;28;20470;-57
2023/12/06 04:16:14;;;;;;;63.63;42.33;;;0.10;64.20;;;;;;5025421;28;20572;-58
2023/12/06 04:18:40;;;;;;;60.97;41.17;;;0.00;66.50;;;;;;5039313;28;20490;-59
2023/12/06 04:21:07;;;;;;;60.73;39.67;;;0.00;64.80;;;;;;5037158;28;20471;-58
2023/12/06 04:23:34;;;;;;;55.73;39.67;;;0.00;64.50;;;;;;5022806;28;20463;-57
2023/12/06 04:26:02;;;;;;;64.83;40.83;;;0.10;63.10;;;;;;5018668;28;20512;-57
2023/12/06 04:28:28;;;;;;;62.93;40.20;;;0.00;64.10;;;;;;5022925;28;20495;-59
2023/12/06 04:30:55;;;;;;;65.07;41.33;;;0.00;64.30;;;;;;5025458;28;20528;-61
2023/12/06 04:33:21;;;;;;;61.00;41.03;;;0.00;63.50;;;;;;5033053;28;20500;-60
2023/12/06 04:35:48;;;;;;;63.00;40.23;;;0.10;63.00;;;;;;5026129;28;20532;-61
2023/12/06 04:38:14;;;;;;;56.60;39.90;;;0.10;62.70;;;;;;5029984;28;20470;-60
2023/12/06 04:40:41;;;;;;;60.63;41.07;;;0.10;62.40;;;;;;5026296;28;20458;-60
2023/12/06 04:43:09;;;;;;;60.47;40.63;;;0.10;61.80;;;;;;5023302;28;20459;-61
2023/12/06 04:45:36;;;;;;;70.27;42.63;;;0.10;62.00;;;;;;5021974;28;20474;-60
2023/12/06 04:48:02;;;;;;;66.37;42.10;;;0.00;63.00;;;;;;5025430;28;20490;-54
2023/12/06 04:50:29;;;;;;;62.00;41.30;;;0.10;62.00;;;;;;5027219;28;20459;-54
2023/12/06 04:52:56;;;;;;;65.23;41.23;;;0.10;61.40;;;;;;5028334;28;20510;-54
2023/12/06 04:55:22;;;;;;;60.57;40.50;;;0.10;61.50;;;;;;5028989;28;20479;-54
2023/12/06 04:57:49;;;;;;;60.17;41.47;;;0.10;62.40;;;;;;5030079;28;20489;-60
2023/12/06 05:00:18;;;;;;;64.47;40.80;;;0.10;60.90;;;;;;5025760;28;20459;-53
2023/12/06 05:02:44;;;;;;;58.90;39.73;;;0.10;58.70;;;;;;5026184;28;20480;-61
2023/12/06 05:05:12;;;;;;;61.23;41.50;;;0.10;58.70;;;;;;5029059;28;20490;-56
2023/12/06 05:07:39;;;;;;;63.43;42.57;;;0.10;56.80;;;;;;5033141;28;20465;-55
2023/12/06 05:10:07;;;;;;;59.03;39.70;;;0.10;55.70;;;;;;5040060;28;20517;-57
2023/12/06 05:12:33;;;;;;;62.07;42.00;;;0.10;53.70;;;;;;5038665;28;21685;-55
2023/12/06 05:15:00;;;;;;;62.10;40.77;;;0.10;53.50;;;;;;5039709;28;20506;-60
2023/12/06 05:17:28;;;;;;;62.93;40.30;;;0.10;54.50;;;;;;5034891;28;20482;-60
2023/12/06 05:19:54;;;;;;;62.90;41.33;;;0.10;53.10;;;;;;5021823;28;20542;-60
2023/12/06 05:22:21;;;;;;;59.90;40.83;;;0.20;53.00;;;;;;5028035;28;20486;-60
2023/12/06 05:24:47;;;;;;;56.63;38.00;;;0.20;54.20;;;;;;5031138;28;20556;-61
2023/12/06 05:27:14;;;;;;;66.70;43.27;;;0.20;55.00;;;;;;5025321;28;20550;-61
2023/12/06 05:29:41;;;;;;;65.43;42.53;;;0.10;56.70;;;;;;5030537;28;20473;-55
2023/12/06 05:32:07;;;;;;;62.37;40.03;;;0.20;55.50;;;;;;5031191;28;20517;-54
2023/12/06 05:34:35;;;;;;;62.03;41.80;;;0.20;56.60;;;;;;5030945;28;20451;-54
2023/12/06 05:37:02;;;;;;;60.63;41.97;;;0.10;56.00;;;;;;5027816;28;20968;-54
2023/12/06 05:39:31;;;;;;;63.47;42.30;;;0.20;55.00;;;;;;5039454;28;20464;-60
2023/12/06 05:41:57;;;;;;;65.93;42.60;;;0.10;55.10;;;;;;5040903;28;20449;-54
2023/12/06 05:44:24;;;;;;;64.73;40.43;;;0.10;54.50;;;;;;5026662;28;20543;-55
2023/12/06 05:46:52;;;;;;;61.93;41.73;;;0.20;54.40;;;;;;5037472;28;20447;-56
2023/12/06 05:49:18;;;;;;;60.43;42.27;;;0.20;53.80;;;;;;5033972;28;20478;-55
2023/12/06 05:51:46;;;;;;;62.93;41.43;;;0.10;55.70;;;;;;5028771;28;20510;-55
2023/12/06 05:54:13;;;;;;;64.70;44.17;;;0.20;54.40;;;;;;5043665;28;20451;-55
2023/12/06 05:56:39;;;;;;;63.40;40.90;;;0.20;54.20;;;;;;5045203;28;20462;-55
2023/12/06 05:59:06;;;;;;;61.60;40.60;;;0.10;54.20;;;;;;5046476;28;20497;-55
2023/12/06 06:01:33;;;;;;;68.03;42.77;;;0.20;52.40;;;;;;5032274;28;20519;-55
2023/12/06 06:03:59;;;;;;;64.20;42.40;;;0.20;52.40;;;;;;5029925;28;20460;-55
2023/12/06 06:06:26;;;;;;;58.83;40.10;;;0.20;51.80;;;;;;5025501;28;20548;-60
2023/12/06 06:08:54;;;;;;;67.07;43.27;;;0.20;51.20;;;;;;5020958;28;20558;-61
2023/12/06 06:11:20;;;;;;;69.73;44.40;;;0.20;51.80;;;;;;5033819;28;20465;-56
2023/12/06 06:13:47;;;;;;;57.17;40.53;;;0.10;54.70;;;;;;5040285;28;20475;-60
2023/12/06 06:16:16;;;;;;;64.20;42.13;;;0.20;52.20;;;;;;5040926;28;20491;-55
2023/12/06 06:18:43;;;;;;;67.07;41.90;;;0.10;53.60;;;;;;5028299;28;20952;-55
2023/12/06 06:21:09;;;;;;;63.70;42.00;;;0.20;51.90;;;;;;5033315;28;20450;-54
2023/12/06 06:23:36;;;;;;;61.60;42.73;;;0.20;51.70;;;;;;5017526;28;20559;-55
2023/12/06 06:26:04;;;;;;;69.03;43.53;;;0.20;52.50;;;;;;5032244;28;20497;-56
2023/12/06 06:28:30;;;;;;;61.00;40.70;;;0.20;51.30;;;;;;5034119;28;20466;-59
2023/12/06 06:30:57;;;;;;;61.83;41.57;;;0.20;51.50;;;;;;5029428;28;20510;-60
2023/12/06 06:33:24;;;;;;;61.80;41.60;;;0.20;51.10;;;;;;5018847;28;20511;-60
2023/12/06 06:35:50;;;;;;;63.57;42.40;;;0.20;52.20;;;;;;5015375;28;20631;-60
2023/12/06 06:38:17;;;;;;;62.23;42.97;;;0.20;51.50;;;;;;5027650;28;20948;-61
2023/12/06 06:40:45;;;;;;;61.43;40.70;;;0.20;52.20;;;;;;5039657;28;20456;-61
2023/12/06 06:43:13;;;;;;;59.07;40.07;;;0.20;51.70;;;;;;5032316;28;21117;-60
2023/12/06 06:45:42;;;;;;;75.37;44.00;;;0.30;51.20;;;;;;5026365;28;20553;-59
2023/12/06 06:48:10;;;;;;;67.87;43.63;;;0.20;53.30;;;;;;5032631;28;20451;-61
2023/12/06 06:50:36;;;;;;;65.83;44.00;;;0.20;52.20;;;;;;5028392;28;20509;-60
2023/12/06 06:53:03;;;;;;;65.23;43.27;;;0.20;53.10;;;;;;5023801;28;20511;-61
2023/12/06 06:55:30;;;;;;;66.40;41.47;;;0.20;52.90;;;;;;5028648;28;20912;-60
2023/12/06 06:57:58;;;;;;;63.20;42.70;;;0.30;51.90;;;;;;5030317;28;20580;-56
2023/12/06 07:00:26;;;;;;;60.30;42.63;;;0.30;52.60;;;;;;5019460;28;20597;-56
2023/12/06 07:02:53;;;;;;;60.70;40.73;;;0.30;52.50;;;;;;5018576;28;21046;-57
2023/12/06 07:05:19;;;;;;;63.90;41.90;;;0.30;54.50;;;;;;5047557;22;20554;-56
2023/12/06 07:07:46;;;;;;;60.30;40.97;;;0.30;53.80;;;;;;5069773;28;20471;-55
2023/12/06 07:10:12;;;;;;;65.53;41.47;;;0.30;57.30;;;;;;5058572;28;22180;-55
2023/12/06 07:12:39;;;;;;;62.13;42.93;;;0.30;56.20;;;;;;5061035;28;21026;-56
2023/12/06 07:15:13;;;;;;;66.40;43.20;;;0.30;57.20;;;;;;5067330;28;20508;-55
2023/12/06 07:17:40;;;;;;;59.70;40.97;;;0.30;57.40;;;;;;5060472;28;20461;-55
2023/12/06 07:20:11;;;;;;;59.43;40.93;;;0.30;62.10;;;;;;5060715;28;20500;-55
2023/12/06 07:22:37;;;;;;;59.70;41.10;;;0.30;60.20;;;;;;5059318;28;20934;-55
2023/12/06 07:25:05;;;;;;;62.67;42.23;;;0.30;59.20;;;;;;5064876;28;20527;-56
2023/12/06 07:27:32;;;;;;;61.67;40.67;;;0.40;58.80;;;;;;5064463;28;20523;-55
2023/12/06 07:29:58;;;;;;;57.03;40.37;;;0.30;60.00;;;;;;5063370;28;20472;-55
2023/12/06 07:32:25;;;;;;;62.23;39.37;;;0.30;59.70;;;;;;5065391;28;20476;-54
2023/12/06 07:34:53;;;;;;;56.70;40.60;;;0.40;60.00;;;;;;5063937;28;20888;-56
2023/12/06 07:37:20;;;;;;;58.20;40.53;;;0.30;60.30;;;;;;5060672;28;20881;-61
2023/12/06 07:39:46;;;;;;;61.23;39.73;;;0.40;57.50;;;;;;5065842;28;20465;-56
2023/12/06 07:42:13;;;;;;;61.43;41.53;;;0.30;56.90;;;;;;5066169;28;20465;-55
2023/12/06 07:44:39;;;;;;;54.73;41.10;;;0.40;57.40;;;;;;5063980;28;20489;-56
2023/12/06 07:47:06;;;;;;;61.63;41.17;;;0.40;56.60;;;;;;5060959;28;20673;-55
2023/12/06 07:49:32;;;;;;;58.17;40.83;;;0.30;59.50;;;;;;5069049;28;20459;-56
2023/12/06 07:52:00;;;;;;;62.40;42.40;;;0.30;58.00;;;;;;5061850;28;20505;-56
2023/12/06 07:54:27;;;;;;;60.23;40.23;;;0.40;58.40;;;;;;5060501;28;20511;-55
2023/12/06 07:56:53;;;;;;;57.50;40.80;;;0.40;57.30;;;;;;5071395;28;20496;-55
2023/12/06 07:59:20;;;;;;;56.00;40.33;;;0.30;58.90;;;;;;5064075;28;20489;-55
2023/12/06 08:01:47;;;;;;;61.40;41.57;;;0.40;55.70;;;;;;5059339;28;20879;-55
2023/12/06 08:04:15;;;;;;;61.73;43.17;;;0.40;54.70;;;;;;5053963;28;20877;-55
2023/12/06 08:06:42;;;;;;;61.43;41.10;;;0.40;55.00;;;;;;5058918;28;20491;-55
2023/12/06 08:09:12;;;;;;;66.23;42.77;;;0.40;56.10;;;;;;5062969;28;20560;-55
2023/12/06 08:11:39;;;;;;;54.40;38.47;;;0.40;58.20;;;;;;5063937;28;20602;-56
2023/12/06 08:14:05;;;;;;;60.37;40.07;;;0.40;55.20;;;;;;5063022;28;20856;-55
2023/12/06 08:16:32;;;;;;;56.40;39.67;;;0.40;56.30;;;;;;5065618;28;20574;-55
2023/12/06 08:18:58;;;;;;;58.80;39.20;;;0.40;56.20;;;;;;5062912;28;20465;-56
2023/12/06 08:21:25;;;;;;;59.73;41.03;;;0.40;54.60;;;;;;5063030;28;20841;-55
2023/12/06 08:23:51;;;;;;;62.57;41.00;;;0.40;57.30;;;;;;5062675;28;20567;-55
2023/12/06 08:26:19;;;;;;;61.20;40.57;;;0.40;54.20;;;;;;5068571;28;20482;-55
2023/12/06 08:28:46;;;;;;;68.33;41.67;;;0.40;54.00;;;;;;5069269;28;20491;-55
2023/12/06 08:31:13;;;;;;;57.30;40.10;;;0.40;53.00;;;;;;5069007;28;20523;-56
2023/12/06 08:33:40;;;;;;;57.87;39.33;;;0.30;51.80;;;;;;5065268;28;20512;-56
2023/12/06 08:36:07;;;;;;;58.90;39.43;;;0.40;51.20;;;;;;5067042;28;20529;-56
2023/12/06 08:38:34;;;;;;;54.90;37.90;;;0.30;51.00;;;;;;5061844;28;20492;-56
2023/12/06 08:41:00;;;;;;;56.33;39.67;;;0.20;48.20;;;;;;5061344;28;20523;-56
2023/12/06 08:43:28;;;;;;;60.50;39.57;;;0.30;45.80;;;;;;5068183;28;20502;-56
2023/12/06 08:45:55;;;;;;;56.60;38.90;;;0.40;45.90;;;;;;5067560;28;20488;-56
2023/12/06 08:48:21;;;;;;;60.60;39.60;;;0.50;44.60;;;;;;5065208;28;20514;-56
2023/12/06 08:50:48;;;;;;;65.80;43.67;;;0.40;47.20;;;;;;5064622;28;20460;-55
2023/12/06 08:53:14;;;;;;;61.10;40.80;;;0.40;45.40;;;;;;5061806;28;20528;-55
2023/12/06 08:55:41;;;;;;;61.30;40.87;;;0.40;47.80;;;;;;5054326;28;21499;-56
2023/12/06 08:58:08;;;;;;;59.77;41.07;;;0.40;47.30;;;;;;5055775;28;20492;-56
2023/12/06 09:00:36;;;;;;;65.67;43.07;;;0.50;46.50;;;;;;5061127;28;20493;-55
2023/12/06 09:03:03;;;;;;;57.63;39.80;;;0.50;46.50;;;;;;5067223;28;20449;-55
2023/12/06 09:05:30;;;;;;;57.37;40.63;;;0.50;45.90;;;;;;5064053;28;20553;-55
2023/12/06 09:07:58;;;;;;;57.57;39.20;;;0.50;47.40;;;;;;5062865;28;20562;-55
2023/12/06 09:10:24;;;;;;;60.20;41.03;;;0.50;47.90;;;;;;5066217;28;20520;-57
2023/12/06 09:12:52;;;;;;;56.70;39.93;;;0.50;46.40;;;;;;5058603;28;20571;-55
2023/12/06 09:15:18;;;;;;;57.50;40.97;;;0.50;50.60;;;;;;5066050;28;20487;-55
2023/12/06 09:17:47;;;;;;;58.20;41.90;;;0.50;47.80;;;;;;5066050;28;20492;-55
2023/12/06 09:20:15;;;;;;;59.90;41.30;;;0.50;49.60;;;;;;5069930;28;20946;-55
2023/12/06 09:22:42;;;;;;;57.90;40.07;;;0.50;48.00;;;;;;5061530;28;20453;-55
2023/12/06 09:25:09;;;;;;;62.40;40.00;;;0.40;50.50;;;;;;5065321;28;20491;-56
2023/12/06 09:27:35;;;;;;;67.83;42.37;;;0.50;49.60;;;;;;5067460;28;20452;-55
2023/12/06 09:30:03;;;;;;;58.27;39.53;;;0.50;48.90;;;;;;5062514;28;20493;-55
2023/12/06 09:32:30;;;;;;;57.73;40.47;;;0.50;47.40;;;;;;5062834;28;20975;-55
2023/12/06 09:34:58;;;;;;;54.10;39.87;;;0.50;46.90;;;;;;5066786;28;20507;-56
2023/12/06 09:37:25;;;;;;;61.73;40.67;;;0.50;49.00;;;;;;5067829;28;21001;-54
2023/12/06 09:39:51;;;;;;;62.57;42.00;;;0.50;47.90;;;;;;5057150;28;20503;-53
2023/12/06 09:42:18;;;;;;;57.40;40.40;;;0.50;49.50;;;;;;5065048;28;20514;-53
2023/12/06 09:44:46;;;;;;;58.87;40.63;;;0.60;44.10;;;;;;5066607;28;20457;-55
2023/12/06 09:47:13;;;;;;;59.43;39.90;;;0.50;47.00;;;;;;5068602;28;20499;-54
2023/12/06 09:49:40;;;;;;;58.20;40.90;;;0.60;45.70;;;;;;5066243;28;20483;-54
2023/12/06 09:52:13;;;;;;;59.10;41.27;;;0.60;48.00;;;;;;5065588;28;20523;-55
2023/12/06 09:54:41;;;;;;;57.40;40.40;;;0.70;46.40;;;;;;5067353;28;20525;-54
2023/12/06 09:57:07;;;;;;;59.47;40.00;;;0.70;48.20;;;;;;5068305;28;20516;-54
2023/12/06 09:59:34;;;;;;;59.90;38.03;;;0.60;52.60;;;;;;5058673;28;20520;-54
2023/12/06 10:02:01;;;;;;;55.10;38.63;;;0.70;50.60;;;;;;5062255;28;20457;-54
2023/12/06 10:04:28;;;;;;;66.40;40.97;;;0.70;50.40;;;;;;5062953;28;20476;-55
2023/12/06 10:06:55;;;;;;;62.47;39.33;;;0.60;55.60;;;;;;5062254;28;20488;-55
2023/12/06 10:09:22;;;;;;;59.00;39.37;;;0.70;50.20;;;;;;5063726;28;20460;-54
2023/12/06 10:11:49;;;;;;;65.77;43.87;;;0.70;51.70;;;;;;5063090;28;20484;-56
2023/12/06 10:14:19;;;;;;;60.37;39.27;;;0.80;51.70;;;;;;5064270;28;20509;-55
2023/12/06 10:16:46;;;;;;;60.70;41.10;;;0.70;52.90;;;;;;5065527;28;20477;-54
2023/12/06 10:19:19;;;;;;;63.70;43.03;;;0.70;55.60;;;;;;5061718;28;20495;-54
2023/12/06 10:21:46;;;;;;;68.00;41.40;;;0.70;57.70;;;;;;5063679;28;20522;-54
2023/12/06 10:24:12;;;;;;;56.00;40.47;;;0.80;53.70;;;;;;5066157;28;20499;-55
2023/12/06 10:26:40;;;;;;;57.50;40.60;;;0.70;58.80;;;;;;5067035;28;20476;-54
2023/12/06 10:29:07;;;;;;;55.10;39.90;;;0.80;52.80;;;;;;5068271;28;20534;-55
2023/12/06 10:31:38;;;;;;;59.90;41.70;;;0.80;51.80;;;;;;5066462;28;20481;-54
2023/12/06 10:34:06;;;;;;;69.20;41.80;;;0.90;51.90;;;;;;5063164;28;20994;-54
2023/12/06 10:36:33;;;;;;;58.30;38.80;;;0.90;56.50;;;;;;5061665;28;20478;-55
2023/12/06 10:39:01;;;;;;;60.43;41.33;;;0.80;57.40;;;;;;5064520;28;20493;-55
2023/12/06 10:41:27;;;;;;;58.90;41.13;;;0.80;60.30;;;;;;5065330;28;20563;-55
2023/12/06 10:43:57;;;;;;;67.33;42.23;;;0.80;58.70;;;;;;5064239;28;20540;-55
2023/12/06 10:46:25;;;;;;;59.40;40.70;;;0.90;57.80;;;;;;5065942;28;20476;-54
2023/12/06 10:48:52;;;;;;;62.67;40.93;;;0.90;59.50;;;;;;5056415;28;20469;-54
2023/12/06 10:51:19;;;;;;;60.20;42.33;;;0.90;59.50;;;;;;5067181;28;20488;-54
2023/12/06 10:53:47;;;;;;;62.10;43.73;;;1.00;59.80;;;;;;5062338;28;20508;-54
2023/12/06 10:56:16;;;;;;;58.53;39.03;;;1.00;58.90;;;;;;5063797;28;21081;-56
2023/12/06 10:58:45;;;;;;;63.23;41.43;;;1.00;61.40;;;;;;5059434;28;20468;-55
2023/12/06 11:01:14;;;;;;;63.83;40.67;;;1.00;67.60;;;;;;5064188;28;20461;-54
2023/12/06 11:03:41;;;;;;;58.10;39.33;;;0.90;72.90;;;;;;5066703;28;20547;-53
2023/12/06 11:06:23;;;;;;;63.17;41.23;;;0.90;70.00;;;;;;5064154;28;20512;-55
2023/12/06 11:09:12;;;;;;;60.30;40.23;;;0.90;71.10;;;;;;5063287;28;20542;-54
2023/12/06 11:11:48;;;;;;;64.60;40.00;;;0.90;68.50;;;;;;5060504;28;20943;-55
2023/12/06 11:14:33;;;;;;;59.37;40.43;;;0.90;65.50;;;;;;5062235;28;20826;-55
2023/12/06 11:17:13;;;;;;;57.90;41.30;;;0.90;72.20;;;;;;5064636;28;20490;-55
2023/12/06 11:19:40;;;;;;;58.47;40.80;;;0.90;70.50;;;;;;5064548;28;20518;-54
2023/12/06 11:22:07;;;;;;;53.43;38.30;;;0.80;70.80;;;;;;5063104;28;20485;-55
2023/12/06 11:24:35;;;;;;;59.13;39.30;;;0.90;67.30;;;;;;5065291;28;20492;-55
2023/12/06 11:27:02;;;;;;;54.50;38.63;;;0.90;64.50;;;;;;5063650;28;20501;-55
2023/12/06 11:29:30;;;;;;;55.43;38.70;;;0.90;66.40;;;;;;5062743;28;20461;-54
2023/12/06 11:31:58;;;;;;;56.93;39.63;;;0.90;72.40;;;;;;5065087;28;20492;-55
2023/12/06 11:34:34;;;;;;;59.20;40.20;;;0.80;70.30;;;;;;5066803;28;20928;-54
2023/12/06 11:37:03;;;;;;;73.00;49.17;;;0.90;63.90;;;;;;5067317;28;20519;-55
2023/12/06 11:39:31;;;;;;;67.13;46.07;;;0.90;60.90;;;;;;5066654;28;20482;-55
2023/12/06 11:42:00;;;;;;;57.37;41.70;;;0.90;66.70;;;;;;5063537;28;20462;-54
2023/12/06 11:44:27;;;;;;;58.10;38.97;;;1.00;64.10;;;;;;5054713;28;20981;-54
2023/12/06 11:46:56;;;;;;;59.87;42.50;;;0.90;70.00;;;;;;5059429;28;20889;-55
2023/12/06 11:49:24;;;;;;;59.80;39.83;;;0.90;65.80;;;;;;5063727;28;20495;-55
2023/12/06 11:51:55;;;;;;;56.37;39.33;;;1.00;65.00;;;;;;5061379;28;20829;-55
2023/12/06 11:54:22;;;;;;;61.43;43.00;;;1.00;65.00;;;;;;5066275;28;20484;-54
2023/12/06 11:56:49;;;;;;;52.10;38.83;;;1.00;66.50;;;;;;5056908;28;20485;-54
2023/12/06 11:59:16;;;;;;;55.80;38.10;;;1.00;66.70;;;;;;5062457;28;20990;-54
2023/12/06 12:01:43;;;;;;;68.60;43.87;;;1.00;66.10;;;;;;5058886;28;20519;-54
2023/12/06 12:04:10;;;;;;;58.80;41.53;;;1.10;64.70;;;;;;5063821;28;20457;-55
2023/12/06 12:06:36;;;;;;;59.63;42.33;;;1.00;68.60;;;;;;5062851;28;20480;-54
2023/12/06 12:09:05;;;;;;;59.23;40.50;;;1.10;69.50;;;;;;5065654;28;20966;-54
2023/12/06 12:11:33;;;;;;;58.80;41.23;;;1.00;70.00;;;;;;5067010;28;20464;-55
2023/12/06 12:14:00;;;;;;;66.87;41.80;;;0.90;72.70;;;;;;5063400;28;20485;-55
2023/12/06 12:16:27;;;;;;;60.80;41.50;;;1.00;66.80;;;;;;5067244;28;20487;-54
2023/12/06 12:18:56;;;;;;;60.37;40.53;;;1.00;71.00;;;;;;5058494;28;20461;-54
2023/12/06 12:21:28;;;;;;;57.03;42.03;;;1.00;68.30;;;;;;5059639;28;20875;-54
2023/12/06 12:23:57;;;;;;;64.83;43.20;;;0.90;68.20;;;;;;5061373;28;20457;-55
2023/12/06 12:26:25;;;;;;;58.30;40.20;;;1.00;64.80;;;;;;5065593;28;20481;-55
2023/12/06 12:28:52;;;;;;;61.00;41.80;;;1.00;63.60;;;;;;5059815;28;21056;-55
2023/12/06 12:31:23;;;;;;;63.10;42.50;;;0.90;67.20;;;;;;5065866;28;20541;-55
2023/12/06 12:33:50;;;;;;;58.60;40.40;;;0.90;68.10;;;;;;5056308;28;20544;-54
2023/12/06 12:36:17;;;;;;;59.47;40.90;;;1.00;62.10;;;;;;5060401;28;20504;-55